Time;durP1;ratioP1;P1;durP2;ratioP2;P2;SDS_P1;SDS_P2;PMS_P1;PMS_P2;Temp;Humidity;BMP_temperature;BMP_pressure;BME280_temperature;BME280_humidity;BME280_pressure;Samples;Min_cycle;Max_cycle;Signal;HPM_P1;HPM_P2
2022/04/01 00:00:01;;;;;;;;;2.00;0.00;;;;;5.06;52.04;99914.09;5035356;28;45410;-47
2022/04/01 00:02:26;;;;;;;;;1.80;1.80;;;;;4.93;52.19;99902.03;5017845;28;45395;-48
2022/04/01 00:04:52;;;;;;;;;1.00;1.00;;;;;4.68;51.80;99871.69;5035814;28;45384;-47
2022/04/01 00:07:18;;;;;;;;;0.50;0.50;;;;;5.11;52.20;99920.59;5017704;28;45726;-48
2022/04/01 00:09:43;;;;;;;;;1.25;1.25;;;;;5.09;51.72;99922.69;5035496;28;45414;-50
2022/04/01 00:12:09;;;;;;;;;2.00;2.00;;;;;5.10;51.81;99918.94;5035602;28;45719;-48
2022/04/01 00:14:35;;;;;;;;;1.75;1.00;;;;;5.09;52.02;99911.81;5035872;28;45628;-48
2022/04/01 00:17:00;;;;;;;;;3.50;1.00;;;;;5.05;51.76;99913.22;5035225;28;46071;-50
2022/04/01 00:19:27;;;;;;;;;3.00;1.75;;;;;5.07;51.94;99911.16;5033990;28;45392;-50
2022/04/01 00:21:52;;;;;;;;;2.20;1.20;;;;;5.05;52.16;99901.50;5035185;28;45377;-48
2022/04/01 00:24:18;;;;;;;;;2.00;2.00;;;;;5.08;52.88;99896.50;5035541;28;45576;-51
2022/04/01 00:26:45;;;;;;;;;1.00;1.00;;;;;4.98;52.09;99871.53;5017793;28;46182;-48
2022/04/01 00:29:17;;;;;;;;;1.00;1.00;;;;;4.86;51.58;99893.00;5033709;28;45411;-48
2022/04/01 00:31:43;;;;;;;;;1.00;1.00;;;;;5.07;52.13;99913.03;5050548;28;45343;-48
2022/04/01 00:34:17;;;;;;;;;2.00;1.00;;;;;4.97;52.91;99899.78;5035322;28;45547;-50
2022/04/01 00:36:48;;;;;;;;;2.20;0.80;;;;;4.98;52.10;99901.44;5034209;28;45562;-49
2022/04/01 00:39:14;;;;;;;;;2.00;1.00;;;;;5.00;52.60;99904.81;5050730;28;45396;-49
2022/04/01 00:41:40;;;;;;;;;1.00;1.00;;;;;5.01;52.74;99912.78;5040304;27;45954;-49
2022/04/01 00:44:15;;;;;;;;;2.80;1.60;;;;;5.05;52.87;99904.22;5070801;28;45366;-50
2022/04/01 00:46:47;;;;;;;;;1.00;1.00;;;;;4.70;52.47;99866.91;5033196;28;46879;-49
2022/04/01 00:49:12;;;;;;;;;1.00;0.00;;;;;4.61;52.66;99853.44;5033860;28;45448;-49
2022/04/01 00:51:38;;;;;;;;;1.00;0.00;;;;;4.60;53.20;99872.66;5053944;28;45419;-49
2022/04/01 00:54:06;;;;;;;;;1.00;1.00;;;;;4.60;53.63;99875.38;5037882;28;45628;-48
2022/04/01 00:56:33;;;;;;;;;0.00;0.00;;;;;4.79;53.20;99882.03;5053793;28;45596;-48
2022/04/01 00:58:58;;;;;;;;;1.60;1.20;;;;;4.85;52.85;99892.13;5038445;28;45457;-51
2022/04/01 01:01:25;;;;;;;;;0.50;0.50;;;;;4.78;52.72;99866.75;5038957;28;45399;-49
2022/04/01 01:03:50;;;;;;;;;0.00;0.00;;;;;4.86;52.83;99863.91;5020780;28;45382;-49
2022/04/01 01:06:16;;;;;;;;;5.25;0.50;;;;;4.92;52.20;99867.72;5037290;28;45485;-48
2022/04/01 01:08:42;;;;;;;;;2.00;1.20;;;;;4.93;52.55;99855.81;5037319;28;45472;-46
2022/04/01 01:11:08;;;;;;;;;1.00;0.25;;;;;4.92;52.66;99845.97;5038494;28;45445;-49
2022/04/01 01:13:34;;;;;;;;;1.25;1.00;;;;;4.90;52.92;99875.22;5037270;28;45428;-48
2022/04/01 01:15:59;;;;;;;;;0.25;0.25;;;;;4.90;53.18;99848.03;5036402;28;48065;-47
2022/04/01 01:18:25;;;;;;;;;0.50;0.50;;;;;4.89;53.80;99846.34;5020416;28;45889;-48
2022/04/01 01:20:51;;;;;;;;;4.00;0.00;;;;;4.94;53.71;99837.59;5037797;28;45389;-47
2022/04/01 01:23:17;;;;;;;;;1.00;1.00;;;;;4.96;53.55;99847.25;5038463;28;45176;-52
2022/04/01 01:25:42;;;;;;;;;0.00;0.00;;;;;4.93;54.22;99833.22;5038174;28;46133;-48
2022/04/01 01:28:08;;;;;;;;;2.00;2.00;;;;;4.97;53.60;99843.50;5036947;28;45402;-48
2022/04/01 01:30:34;;;;;;;;;1.00;0.75;;;;;4.91;54.47;99835.28;5019914;28;45380;-47
2022/04/01 01:33:01;;;;;;;;;0.00;0.00;;;;;4.79;54.70;99826.84;5038240;28;45844;-49
2022/04/01 01:35:28;;;;;;;;;0.00;0.00;;;;;4.90;55.75;99826.28;5037899;28;45660;-49
2022/04/01 01:37:54;;;;;;;;;1.00;0.40;;;;;4.83;55.71;99825.38;5038009;28;45383;-47
2022/04/01 01:40:20;;;;;;;;;0.50;0.00;;;;;4.64;55.29;99788.84;5020207;28;45267;-49
2022/04/01 01:42:46;;;;;;;;;1.00;1.00;;;;;4.83;56.12;99819.94;5031392;28;45469;-52
2022/04/01 01:45:11;;;;;;;;;1.00;1.00;;;;;4.86;55.26;99816.84;5021972;28;46528;-48
2022/04/01 01:47:37;;;;;;;;;0.75;0.75;;;;;4.81;56.00;99805.72;5054585;28;45582;-50
2022/04/01 01:55:31;;;;;;;;;0.00;0.00;;;;;4.59;57.58;99795.72;5057884;28;45383;-48
2022/04/01 01:57:57;;;;;;;;;0.50;0.50;;;;;4.68;58.13;99798.28;5057240;28;45785;-49
2022/04/01 02:00:22;;;;;;;;;1.00;1.00;;;;;4.42;58.26;99758.97;5056069;28;45390;-48
2022/04/01 02:02:49;;;;;;;;;4.00;0.00;;;;;4.60;58.55;99794.66;5056202;28;45463;-48
2022/04/01 02:05:16;;;;;;;;;0.20;0.20;;;;;4.54;57.63;99784.56;5057209;28;45995;-47
2022/04/01 02:07:47;;;;;;;;;1.00;0.40;;;;;4.60;58.33;99788.41;5039762;28;45466;-48
2022/04/01 02:10:14;;;;;;;;;0.00;0.00;;;;;4.56;59.06;99778.94;5057225;28;45410;-46
2022/04/01 02:12:41;;;;;;;;;4.20;1.60;;;;;4.61;58.45;99784.66;5039321;28;45532;-46
2022/04/01 02:15:10;;;;;;;;;0.00;0.00;;;;;4.30;58.88;99737.78;5056750;28;46700;-47
2022/04/01 02:17:40;;;;;;;;;0.80;0.40;;;;;4.55;59.59;99777.28;5056093;28;45396;-47
2022/04/01 02:20:09;;;;;;;;;0.00;0.00;;;;;4.56;59.14;99770.81;5057417;28;45413;-48
2022/04/01 02:22:35;;;;;;;;;4.60;1.20;;;;;4.33;58.70;99755.56;5057290;28;45567;-46
2022/04/01 02:25:03;;;;;;;;;1.00;1.00;;;;;4.46;59.53;99760.25;5056740;28;46285;-49
2022/04/01 02:27:29;;;;;;;;;1.60;1.60;;;;;4.52;60.64;99777.66;5038790;28;45346;-53
2022/04/01 02:29:54;;;;;;;;;0.75;0.75;;;;;4.25;60.36;99732.09;5057110;28;45426;-48
2022/04/01 02:32:20;;;;;;;;;1.50;0.00;;;;;4.48;61.70;99764.47;5057257;28;45447;-52
2022/04/01 02:34:48;;;;;;;;;2.50;0.25;;;;;4.40;61.66;99759.19;5056629;28;45744;-49
2022/04/01 02:37:13;;;;;;;;;4.20;1.00;;;;;4.34;61.44;99768.94;5038763;28;45316;-49
2022/04/01 02:39:39;;;;;;;;;0.00;0.00;;;;;4.34;61.50;99755.34;5057152;28;45335;-49
2022/04/01 02:42:05;;;;;;;;;1.75;0.75;;;;;4.34;61.83;99760.78;5056804;28;45493;-49
2022/04/01 02:44:30;;;;;;;;;0.50;0.50;;;;;4.04;62.13;99709.34;5056635;28;45627;-49
2022/04/01 02:46:56;;;;;;;;;0.25;0.25;;;;;4.28;61.94;99761.56;5055450;28;45772;-48
2022/04/01 02:49:21;;;;;;;;;1.00;1.00;;;;;4.29;62.56;99752.41;5057081;28;45910;-47
2022/04/01 02:51:47;;;;;;;;;0.00;0.00;;;;;4.30;62.95;99773.09;5072665;28;45389;-50
2022/04/01 02:54:12;;;;;;;;;1.00;1.00;;;;;4.24;63.81;99735.84;5072265;28;45446;-49
2022/04/01 02:56:39;;;;;;;;;1.00;1.00;;;;;4.25;63.55;99759.25;5056058;28;45329;-50
2022/04/01 02:59:08;;;;;;;;;1.00;1.00;;;;;4.14;64.47;99760.63;5057031;28;45636;-49
2022/04/01 03:01:40;;;;;;;;;1.00;1.00;;;;;4.08;64.69;99753.22;5056968;28;45413;-49
2022/04/01 03:04:10;;;;;;;;;1.00;1.00;;;;;4.19;63.69;99743.72;5072143;28;46275;-49
2022/04/01 03:06:39;;;;;;;;;0.00;0.00;;;;;4.18;64.25;99748.31;5056623;28;45329;-47
2022/04/01 03:09:06;;;;;;;;;0.40;0.00;;;;;4.20;64.92;99743.53;5057007;28;45378;-48
2022/04/01 03:11:31;;;;;;;;;2.40;0.60;;;;;4.15;64.82;99740.56;5056550;28;45388;-48
2022/04/01 03:13:57;;;;;;;;;0.50;0.50;;;;;4.18;65.05;99742.03;5038065;28;46661;-47
2022/04/01 03:16:23;;;;;;;;;1.00;1.00;;;;;4.14;65.04;99741.59;5056442;28;45697;-48
2022/04/01 03:18:48;;;;;;;;;1.75;1.00;;;;;4.16;65.58;99723.22;5055105;28;45382;-47
2022/04/01 03:21:14;;;;;;;;;3.50;0.75;;;;;4.11;65.01;99744.69;5056698;28;45472;-48
2022/04/01 03:23:40;;;;;;;;;0.50;0.00;;;;;3.82;65.54;99683.19;5071653;28;45694;-47
2022/04/01 03:26:06;;;;;;;;;1.00;1.00;;;;;4.05;65.53;99719.16;5055066;28;45764;-46
2022/04/01 03:28:33;;;;;;;;;1.75;1.75;;;;;4.03;65.86;99723.94;5056615;28;45371;-47
2022/04/01 03:30:59;;;;;;;;;0.00;0.00;;;;;3.79;66.46;99681.75;5046921;28;45387;-48
2022/04/01 03:33:25;;;;;;;;;4.50;1.25;;;;;3.85;66.33;99713.50;5036717;28;46553;-51
2022/04/01 03:35:51;;;;;;;;;1.00;1.00;;;;;3.92;67.23;99708.16;5056316;28;45372;-49
2022/04/01 03:38:16;;;;;;;;;1.00;1.00;;;;;3.89;66.77;99703.97;5056750;28;45437;-50
2022/04/01 03:40:41;;;;;;;;;2.00;1.00;;;;;3.62;66.43;99664.84;5056119;28;45397;-48
2022/04/01 03:43:07;;;;;;;;;0.00;0.00;;;;;3.94;67.08;99719.66;5038146;28;46723;-49
2022/04/01 03:45:34;;;;;;;;;0.00;0.00;;;;;3.98;66.86;99710.09;5056036;28;45493;-52
2022/04/01 03:48:04;;;;;;;;;1.00;1.00;;;;;3.91;67.12;99723.59;5071063;28;45346;-48
2022/04/01 03:50:32;;;;;;;;;0.00;0.00;;;;;3.91;67.77;99726.31;5054696;28;45538;-50
2022/04/01 03:53:08;;;;;;;;;2.00;0.40;;;;;3.84;66.80;99714.56;5071100;28;45615;-49
2022/04/01 03:55:38;;;;;;;;;0.00;0.00;;;;;3.85;66.84;99718.13;5037631;28;45433;-47
2022/04/01 03:58:12;;;;;;;;;1.40;1.00;;;;;3.62;67.11;99668.41;5055648;28;45449;-49
2022/04/01 04:00:38;;;;;;;;;0.00;0.00;;;;;3.83;67.36;99706.63;5037684;28;45348;-49
2022/04/01 04:03:07;;;;;;;;;0.25;0.25;;;;;3.79;66.82;99714.31;5037383;28;45426;-49
2022/04/01 04:05:36;;;;;;;;;2.00;0.80;;;;;3.84;67.36;99708.31;5055393;28;45357;-48
2022/04/01 04:08:06;;;;;;;;;0.00;0.00;;;;;3.72;67.09;99721.50;5055344;28;45386;-48
2022/04/01 04:10:34;;;;;;;;;0.00;0.00;;;;;3.79;67.17;99715.13;5055860;28;45384;-51
2022/04/01 04:13:00;;;;;;;;;0.60;0.60;;;;;3.51;67.02;99672.47;5054907;28;45561;-46
2022/04/01 04:15:26;;;;;;;;;2.80;0.40;;;;;3.65;66.88;99703.31;5070967;28;45423;-47
2022/04/01 04:17:54;;;;;;;;;0.00;0.00;;;;;3.61;66.62;99687.59;5054123;28;45387;-47
2022/04/01 04:20:35;;;;;;;;;3.60;1.00;;;;;3.79;66.57;99708.88;5053778;28;45338;-47
2022/04/01 04:23:03;;;;;;;;;0.80;0.80;;;;;3.77;67.06;99717.22;5070491;28;45743;-49
2022/04/01 04:25:36;;;;;;;;;0.60;0.60;;;;;3.82;66.85;99711.19;5054237;28;45398;-49
2022/04/01 04:28:03;;;;;;;;;0.60;0.40;;;;;3.86;66.08;99707.06;5070598;28;45357;-49
2022/04/01 04:30:33;;;;;;;;;1.00;1.00;;;;;3.88;66.73;99701.44;5070876;28;45450;-49
2022/04/01 04:33:07;;;;;;;;;0.40;0.40;;;;;3.85;66.17;99705.38;5054830;28;45565;-49
2022/04/01 04:35:41;;;;;;;;;2.00;1.00;;;;;3.89;65.95;99712.09;5066709;28;45468;-49
2022/04/01 04:38:07;;;;;;;;;1.00;1.00;;;;;3.90;65.66;99704.81;5050338;28;45357;-50
2022/04/01 04:40:34;;;;;;;;;0.80;0.80;;;;;3.74;65.44;99682.28;5036415;28;45337;-49
2022/04/01 04:42:59;;;;;;;;;1.00;1.00;;;;;3.91;65.79;99711.91;5054692;28;46544;-48
2022/04/01 04:45:26;;;;;;;;;1.00;1.00;;;;;3.90;65.73;99716.50;5055271;28;45803;-51
2022/04/01 04:47:51;;;;;;;;;0.00;0.00;;;;;3.96;65.74;99722.19;5055091;28;45411;-50
2022/04/01 04:50:17;;;;;;;;;1.00;1.00;;;;;3.92;65.37;99728.03;5053965;28;45358;-50
2022/04/01 04:52:45;;;;;;;;;0.00;0.00;;;;;3.71;65.11;99693.56;5054878;28;46389;-50
2022/04/01 04:55:13;;;;;;;;;1.00;1.00;;;;;3.96;65.35;99724.91;5036716;28;45469;-48
2022/04/01 04:57:39;;;;;;;;;0.80;0.80;;;;;3.56;65.29;99652.06;5054930;28;45365;-49
2022/04/01 05:00:05;;;;;;;;;1.00;1.00;;;;;3.96;64.83;99717.63;5037467;28;45395;-51
2022/04/01 05:02:58;;;;;;;;;0.60;0.60;;;;;4.12;64.26;99743.69;5036699;28;47281;-51
2022/04/01 05:05:31;;;;;;;;;0.80;0.80;;;;;4.01;64.63;99703.44;5054957;28;45835;-51
2022/04/01 05:08:05;;;;;;;;;1.00;1.00;;;;;4.05;64.21;99737.31;5055037;28;45417;-51
2022/04/01 05:10:38;;;;;;;;;1.00;1.00;;;;;4.01;64.89;99738.75;5070623;28;45581;-49
2022/04/01 05:13:21;;;;;;;;;0.00;0.00;;;;;4.03;63.82;99747.53;5036647;28;45422;-48
2022/04/01 05:15:51;;;;;;;;;0.80;0.80;;;;;3.95;64.04;99751.22;5053743;28;45343;-50
2022/04/01 05:18:42;;;;;;;;;2.00;0.40;;;;;4.03;64.04;99742.09;5052868;28;45283;-48
2022/04/01 05:21:18;;;;;;;;;1.00;1.00;;;;;3.77;63.39;99705.50;5068076;28;45556;-48
2022/04/01 05:24:02;;;;;;;;;1.00;1.00;;;;;4.02;62.78;99754.00;5068910;28;46948;-49
2022/04/01 05:26:41;;;;;;;;;1.00;1.00;;;;;3.99;62.94;99762.56;5036484;28;45355;-48
2022/04/01 05:29:14;;;;;;;;;0.60;0.60;;;;;4.01;63.73;99757.75;5037526;28;45410;-49
2022/04/01 05:32:03;;;;;;;;;1.00;1.00;;;;;4.03;64.04;99761.97;5054417;28;45399;-49
2022/04/01 05:34:42;;;;;;;;;1.00;1.00;;;;;4.02;63.96;99763.00;5054002;28;45457;-51
2022/04/01 05:37:07;;;;;;;;;0.80;0.80;;;;;4.10;63.83;99767.44;5071864;28;45354;-49
2022/04/01 05:39:33;;;;;;;;;2.00;2.00;;;;;4.13;64.00;99771.66;5058306;28;45400;-49
2022/04/01 05:41:59;;;;;;;;;1.20;1.20;;;;;3.93;63.53;99756.00;5057595;28;45326;-48
2022/04/01 05:44:25;;;;;;;;;1.00;1.00;;;;;4.02;63.60;99773.00;5039671;28;46021;-50
2022/04/01 05:46:51;;;;;;;;;1.00;1.00;;;;;3.97;63.41;99776.31;5033231;28;45416;-50
2022/04/01 05:49:18;;;;;;;;;3.40;1.00;;;;;3.76;63.52;99758.97;5073074;28;45364;-50
2022/04/01 05:51:44;;;;;;;;;4.00;4.00;;;;;3.92;63.24;99771.47;5073851;28;45335;-51
2022/04/01 05:54:10;;;;;;;;;1.00;1.00;;;;;3.97;63.54;99768.16;5039529;28;46993;-50
2022/04/01 05:56:37;;;;;;;;;2.25;2.25;;;;;4.02;64.42;99783.88;5033269;28;45599;-47
2022/04/01 05:59:03;;;;;;;;;1.00;1.00;;;;;4.02;63.21;99786.59;5055668;28;45398;-50
2022/04/01 06:02:01;;;;;;;;;1.00;1.00;;;;;3.97;63.79;99791.75;5054768;28;45371;-48
2022/04/01 06:04:49;;;;;;;;;2.00;2.00;;;;;3.93;63.72;99785.88;5039118;28;48716;-49
2022/04/01 06:07:24;;;;;;;;;3.20;3.20;;;;;3.90;64.05;99810.69;5058018;28;45973;-50
2022/04/01 06:09:59;;;;;;;;;3.20;3.20;;;;;3.88;64.35;99791.88;5057637;28;45751;-54
2022/04/01 06:12:35;;;;;;;;;2.00;2.00;;;;;3.80;64.80;99792.81;5057540;28;45431;-47
2022/04/01 06:15:10;;;;;;;;;3.80;2.00;;;;;3.22;64.90;99712.19;5071993;28;46515;-51
2022/04/01 06:17:44;;;;;;;;;3.20;3.20;;;;;3.78;64.41;99819.31;5055523;28;45385;-50
2022/04/01 06:20:10;;;;;;;;;2.40;2.40;;;;;3.73;65.18;99821.75;5057753;28;45431;-51
2022/04/01 06:22:48;;;;;;;;;4.75;4.75;;;;;3.72;66.16;99825.50;5073018;28;45475;-47
2022/04/01 06:25:16;;;;;;;;;2.00;2.00;;;;;3.78;65.78;99827.47;5071673;28;46709;-47
2022/04/01 06:27:46;;;;;;;;;4.00;4.00;;;;;3.60;65.87;99798.03;5039451;28;45417;-49
2022/04/01 06:30:17;;;;;;;;;4.40;4.40;;;;;3.69;66.50;99819.63;5039366;28;45374;-52
2022/04/01 06:32:52;;;;;;;;;2.40;2.40;;;;;3.75;65.67;99833.25;5057287;28;45371;-52
2022/04/01 06:35:19;;;;;;;;;2.00;2.00;;;;;3.76;66.39;99843.13;5038415;28;47507;-49
2022/04/01 06:37:57;;;;;;;;;3.60;3.60;;;;;3.73;66.51;99848.09;5038203;28;46200;-53
2022/04/01 06:40:25;;;;;;;;;5.20;4.20;;;;;3.53;67.21;99835.91;5039169;28;45352;-49
2022/04/01 06:42:52;;;;;;;;;5.00;5.00;;;;;3.58;67.15;99845.38;5022332;28;45786;-50
2022/04/01 06:45:19;;;;;;;;;2.00;2.00;;;;;3.58;67.24;99848.91;5072036;28;45498;-50
2022/04/01 06:47:45;;;;;;;;;1.00;1.00;;;;;3.56;67.58;99842.84;5070948;28;45860;-49
2022/04/01 06:50:12;;;;;;;;;3.60;3.60;;;;;3.60;67.61;99865.00;5056916;28;45313;-50
2022/04/01 06:52:38;;;;;;;;;3.20;3.20;;;;;3.37;67.08;99844.25;5056733;28;45367;-49
2022/04/01 06:55:08;;;;;;;;;2.00;2.00;;;;;3.44;68.12;99866.91;5071945;28;46042;-45
2022/04/01 06:57:34;;;;;;;;;6.60;5.00;;;;;3.43;68.47;99865.22;5056423;28;45521;-49
2022/04/01 06:59:59;;;;;;;;;4.00;4.00;;;;;3.09;68.85;99820.47;5071755;28;45558;-50
2022/04/01 07:02:25;;;;;;;;;8.25;4.50;;;;;3.29;70.12;99857.88;5056567;28;45362;-49
2022/04/01 07:04:50;;;;;;;;;7.50;7.50;;;;;3.30;69.23;99865.03;5037981;28;46666;-48
2022/04/01 07:07:16;;;;;;;;;6.50;4.00;;;;;3.32;69.70;99866.53;5071627;28;45402;-48
2022/04/01 07:09:41;;;;;;;;;7.75;5.75;;;;;3.36;70.05;99867.81;5056391;28;45410;-51
2022/04/01 07:12:07;;;;;;;;;1.00;1.00;;;;;3.31;69.53;99872.94;5056300;28;45464;-50
2022/04/01 07:14:33;;;;;;;;;4.75;4.25;;;;;3.25;69.20;99862.84;5056240;28;45411;-49
2022/04/01 07:16:58;;;;;;;;;8.25;5.75;;;;;3.25;69.54;99877.25;5027393;28;46177;-49
2022/04/01 07:19:24;;;;;;;;;2.50;2.50;;;;;3.32;69.74;99879.22;5054466;28;45263;-52
2022/04/01 07:21:50;;;;;;;;;7.75;5.75;;;;;3.37;69.34;99871.38;5056313;28;45314;-49
2022/04/01 07:24:15;;;;;;;;;5.00;5.00;;;;;3.37;69.25;99876.81;5055638;28;45514;-52
2022/04/01 07:26:44;;;;;;;;;9.75;5.25;;;;;3.37;68.57;99880.34;5056190;28;45359;-53
2022/04/01 07:29:10;;;;;;;;;7.40;7.40;;;;;3.27;68.86;99881.66;5055872;28;45528;-51
2022/04/01 07:34:30;;;;;;;;;8.40;8.40;;;;;3.19;69.93;99890.69;5055419;28;45760;-53
2022/04/01 07:36:55;;;;;;;;;8.25;8.25;;;;;3.00;69.59;99849.56;5055671;28;45395;-51
2022/04/01 07:39:21;;;;;;;;;8.25;8.25;;;;;3.21;69.77;99886.78;5054590;28;45406;-55
2022/04/01 07:41:47;;;;;;;;;9.80;8.40;;;;;3.14;69.68;99876.88;5038319;28;45405;-51
2022/04/01 07:44:13;;;;;;;;;8.25;8.25;;;;;3.05;69.76;99876.94;5055619;28;46652;-51
2022/04/01 07:46:38;;;;;;;;;10.75;10.75;;;;;2.98;69.76;99857.00;5055484;28;45316;-51
2022/04/01 07:49:04;;;;;;;;;6.00;6.00;;;;;3.22;69.98;99895.78;5054749;28;45454;-52
2022/04/01 07:51:29;;;;;;;;;5.25;5.25;;;;;3.17;70.68;99890.91;5054921;28;45411;-53
2022/04/01 07:53:55;;;;;;;;;10.75;9.00;;;;;3.18;70.55;99884.44;5015882;28;45650;-54
2022/04/01 07:56:20;;;;;;;;;7.00;7.00;;;;;3.29;70.25;99896.72;5035196;28;45504;-50
2022/04/01 07:58:46;;;;;;;;;9.25;9.25;;;;;3.29;69.91;99907.56;5037215;28;45327;-55
2022/04/01 08:01:11;;;;;;;;;8.00;7.25;;;;;3.05;69.95;99876.94;5054918;28;45455;-53
2022/04/01 08:03:41;;;;;;;;;8.50;8.00;;;;;3.17;69.92;99925.31;5054740;28;45373;-52
2022/04/01 08:06:07;;;;;;;;;7.60;7.40;;;;;3.19;69.96;99931.38;5054675;28;45358;-54
2022/04/01 08:08:32;;;;;;;;;7.00;7.00;;;;;3.19;69.01;99925.97;5053868;28;45300;-51
2022/04/01 08:10:58;;;;;;;;;4.00;2.00;;;;;3.17;69.65;99931.59;5055141;28;45364;-51
2022/04/01 08:13:24;;;;;;;;;6.75;4.25;;;;;3.16;69.52;99908.22;5070381;28;45401;-52
2022/04/01 08:15:50;;;;;;;;;10.00;7.80;;;;;3.04;69.39;99902.38;5053663;28;45473;-51
2022/04/01 08:18:16;;;;;;;;;8.75;8.25;;;;;3.26;69.36;99937.78;5031323;28;45535;-51
2022/04/01 08:20:41;;;;;;;;;10.00;8.00;;;;;3.03;69.03;99905.28;5051718;28;45417;-57
2022/04/01 08:23:07;;;;;;;;;11.75;8.50;;;;;3.29;69.68;99928.41;5054624;28;45373;-53
2022/04/01 08:25:32;;;;;;;;;11.50;10.75;;;;;3.41;69.13;99951.34;5070361;28;45334;-54
2022/04/01 08:27:58;;;;;;;;;7.25;7.25;;;;;3.34;68.81;99945.84;5037218;28;45315;-55
2022/04/01 08:30:23;;;;;;;;;9.50;8.00;;;;;3.14;68.97;99912.13;5053767;28;45363;-54
2022/04/01 08:32:49;;;;;;;;;8.00;8.00;;;;;3.42;68.91;99969.31;5053333;28;45369;-54
2022/04/01 08:35:14;;;;;;;;;10.50;9.25;;;;;3.38;68.19;99962.59;5054602;28;45476;-57
2022/04/01 08:37:40;;;;;;;;;9.25;9.25;;;;;3.41;68.86;99980.38;5048152;28;45501;-50
2022/04/01 08:40:08;;;;;;;;;8.50;8.50;;;;;3.16;67.78;99929.03;5035981;28;45385;-49
2022/04/01 08:42:34;;;;;;;;;7.00;7.00;;;;;3.35;68.10;99987.34;5053198;28;45861;-55
2022/04/01 08:45:02;;;;;;;;;9.50;9.50;;;;;3.37;68.20;99998.88;5034370;28;45699;-50
2022/04/01 08:47:28;;;;;;;;;7.00;7.00;;;;;3.20;67.83;99998.19;5053624;28;45597;-56
2022/04/01 08:49:54;;;;;;;;;11.25;9.75;;;;;3.14;68.04;99990.78;5052841;28;45428;-52
2022/04/01 08:52:20;;;;;;;;;8.60;8.00;;;;;2.91;68.05;99953.66;5034777;28;48245;-54
2022/04/01 08:54:46;;;;;;;;;9.25;9.25;;;;;3.13;68.62;99995.34;5028022;28;45438;-59
2022/04/01 08:57:17;;;;;;;;;11.60;10.40;;;;;3.27;68.93;100003.69;5052680;28;45333;-51
2022/04/01 08:59:43;;;;;;;;;15.00;12.00;;;;;3.31;67.88;100008.56;5069542;28;45452;-53
2022/04/01 09:02:09;;;;;;;;;12.75;11.00;;;;;3.06;68.18;99981.69;5054315;28;45809;-55
2022/04/01 09:04:35;;;;;;;;;10.00;9.80;;;;;3.29;67.79;100015.22;5054312;28;45845;-56
2022/04/01 09:07:14;;;;;;;;;7.00;7.00;;;;;3.24;68.01;100018.47;5036122;28;45324;-55
2022/04/01 09:09:40;;;;;;;;;13.00;10.20;;;;;3.25;67.64;100020.16;5053398;28;45480;-54
2022/04/01 09:12:13;;;;;;;;;11.50;8.25;;;;;3.24;67.59;100027.47;5056604;28;46159;-51
2022/04/01 09:14:40;;;;;;;;;9.80;8.60;;;;;3.29;67.37;100026.91;5057700;28;45370;-55
2022/04/01 09:17:05;;;;;;;;;11.60;11.00;;;;;3.35;67.63;100028.91;5058017;28;45328;-54
2022/04/01 09:19:32;;;;;;;;;9.00;9.00;;;;;3.28;67.34;100018.94;5017717;28;45936;-54
2022/04/01 09:22:14;;;;;;;;;11.60;11.00;;;;;3.41;66.81;100048.19;5057444;28;46579;-49
2022/04/01 09:24:54;;;;;;;;;9.40;9.40;;;;;3.26;67.02;100021.88;5044865;27;45834;-50
2022/04/01 09:27:19;;;;;;;;;10.20;8.40;;;;;3.43;67.43;100047.00;5052797;28;45791;-54
2022/04/01 09:29:45;;;;;;;;;10.50;10.50;;;;;3.45;66.25;100060.34;5013630;28;45629;-51
2022/04/01 09:32:11;;;;;;;;;11.50;10.00;;;;;3.39;66.03;100051.09;5032774;28;46341;-52
2022/04/01 09:34:40;;;;;;;;;9.75;9.25;;;;;3.37;66.24;100051.25;5052788;28;45465;-55
2022/04/01 09:37:07;;;;;;;;;10.60;9.00;;;;;3.46;66.27;100070.22;5051840;28;45730;-53
2022/04/01 09:39:34;;;;;;;;;9.80;9.80;;;;;3.42;65.90;100058.03;5052915;28;45850;-50
2022/04/01 09:42:00;;;;;;;;;9.80;9.80;;;;;3.33;65.61;100049.94;5052554;28;45851;-48
2022/04/01 09:44:30;;;;;;;;;11.40;8.80;;;;;3.47;66.01;100061.03;5050844;28;45502;-50
2022/04/01 09:47:00;;;;;;;;;13.80;10.60;;;;;3.18;65.73;100030.91;5034137;28;45379;-55
2022/04/01 09:49:38;;;;;;;;;12.00;11.00;;;;;3.38;66.00;100069.22;5066278;28;45838;-49
2022/04/01 09:52:08;;;;;;;;;9.40;8.00;;;;;3.50;65.99;100074.22;5034082;28;46604;-53
2022/04/01 09:54:34;;;;;;;;;11.80;10.60;;;;;3.47;65.95;100069.19;5032705;28;45910;-50
2022/04/01 09:56:59;;;;;;;;;10.80;8.60;;;;;3.56;65.14;100087.06;5048901;28;45604;-52
2022/04/01 09:59:31;;;;;;;;;14.75;11.00;;;;;3.51;65.75;100074.06;5049456;28;45838;-50
2022/04/01 10:01:57;;;;;;;;;10.00;10.00;;;;;3.53;66.59;100073.88;5046491;28;46383;-50
2022/04/01 10:04:22;;;;;;;;;13.00;10.00;;;;;3.74;65.53;100077.78;5064354;28;46037;-51
2022/04/01 10:06:48;;;;;;;;;10.00;10.00;;;;;3.75;65.23;100102.00;5026459;28;45815;-50
2022/04/01 10:09:13;;;;;;;;;15.00;14.25;;;;;3.48;65.04;100051.88;5033856;28;45480;-55
2022/04/01 10:11:40;;;;;;;;;10.50;10.50;;;;;3.74;64.79;100097.59;5052530;28;46639;-56
2022/04/01 10:14:08;;;;;;;;;14.20;10.60;;;;;3.72;65.49;100096.09;5052035;28;45499;-52
2022/04/01 10:16:35;;;;;;;;;9.20;8.80;;;;;3.66;65.40;100093.09;5049889;28;45734;-51
2022/04/01 10:19:07;;;;;;;;;9.80;8.40;;;;;3.63;65.27;100082.59;5065920;28;45480;-50
2022/04/01 10:21:34;;;;;;;;;11.40;9.80;;;;;3.56;65.49;100067.25;5067300;28;46112;-56
2022/04/01 10:24:09;;;;;;;;;12.60;11.60;;;;;3.80;65.37;100106.91;5034204;28;45395;-55
2022/04/01 10:26:35;;;;;;;;;13.20;13.20;;;;;3.76;65.20;100097.44;5051132;28;45390;-55
2022/04/01 10:29:02;;;;;;;;;11.75;10.50;;;;;3.61;64.68;100084.66;5049928;28;45579;-55
2022/04/01 10:31:27;;;;;;;;;15.20;10.60;;;;;3.68;65.73;100105.66;5019029;28;45819;-50
2022/04/01 10:33:53;;;;;;;;;11.25;11.25;;;;;3.65;64.47;100113.13;5031765;28;45541;-54
2022/04/01 10:36:22;;;;;;;;;12.00;12.00;;;;;3.75;64.60;100112.03;5032305;28;45855;-54
2022/04/01 10:38:48;;;;;;;;;11.20;11.20;;;;;3.58;65.21;100087.72;5051449;28;45765;-54
2022/04/01 10:41:15;;;;;;;;;11.80;8.60;;;;;3.44;64.70;100089.38;5030260;28;46797;-50
2022/04/01 10:43:45;;;;;;;;;11.80;9.20;;;;;3.39;65.16;100072.78;5047787;28;45737;-56
2022/04/01 10:46:13;;;;;;;;;11.00;11.00;;;;;3.76;65.37;100120.00;5052641;28;45521;-59
2022/04/01 10:51:37;;;;;;;;;14.00;13.80;;;;;3.44;64.19;100066.81;5052498;28;45843;-56
2022/04/01 10:54:12;;;;;;;;;11.80;11.80;;;;;3.74;64.63;100134.78;5036422;28;45426;-56
2022/04/01 10:56:56;;;;;;;;;12.40;11.80;;;;;3.31;63.75;100092.66;5050845;28;45501;-56
2022/04/01 10:59:23;;;;;;;;;7.80;7.80;;;;;3.65;64.42;100137.56;5067152;28;45383;-52
2022/04/01 11:01:52;;;;;;;;;14.40;14.00;;;;;3.70;64.16;100137.00;5049122;28;47592;-52
2022/04/01 11:04:18;;;;;;;;;11.40;11.40;;;;;3.64;64.38;100122.28;5049606;28;45370;-52
2022/04/01 11:07:12;;;;;;;;;13.75;10.50;;;;;3.64;64.83;100151.31;5051082;28;45398;-59
2022/04/01 11:09:47;;;;;;;;;14.60;11.00;;;;;3.62;65.40;100137.91;5014685;28;45498;-57
2022/04/01 11:12:15;;;;;;;;;13.80;12.20;;;;;3.64;65.88;100157.56;5032227;28;46009;-57
2022/04/01 11:15:19;;;;;;;;;15.00;12.00;;;;;3.54;64.90;100146.13;5032303;28;45379;-59
2022/04/01 11:17:44;;;;;;;;;13.00;11.20;;;;;3.62;64.46;100156.03;5032366;28;45468;-59
2022/04/01 11:20:17;;;;;;;;;15.25;15.00;;;;;3.20;65.56;100107.50;5017012;28;45756;-62
2022/04/01 11:22:52;;;;;;;;;13.80;13.80;;;;;3.63;64.77;100155.06;5033570;28;45747;-60
2022/04/01 11:25:32;;;;;;;;;11.80;10.20;;;;;3.62;64.01;100156.91;5049616;28;45334;-58
2022/04/01 11:28:14;;;;;;;;;9.60;9.40;;;;;3.38;64.73;100145.19;5052433;28;45584;-55
2022/04/01 11:30:53;;;;;;;;;15.00;12.00;;;;;3.57;64.51;100153.88;5051271;28;45819;-55
2022/04/01 11:33:20;;;;;;;;;12.80;11.20;;;;;3.69;65.08;100175.19;5049514;28;45499;-52
2022/04/01 11:35:47;;;;;;;;;12.80;11.40;;;;;3.48;64.48;100142.25;5050835;28;45484;-53
2022/04/01 11:38:15;;;;;;;;;14.60;13.40;;;;;3.38;64.87;100133.50;5033919;28;45443;-53
2022/04/01 11:40:41;;;;;;;;;15.60;14.20;;;;;3.53;65.06;100144.44;5052455;28;45498;-57
2022/04/01 11:43:08;;;;;;;;;19.00;16.25;;;;;3.72;64.16;100164.81;5048901;28;47315;-56
2022/04/01 11:45:35;;;;;;;;;13.60;12.00;;;;;3.52;64.41;100140.00;5050417;28;45441;-52
2022/04/01 11:48:21;;;;;;;;;16.40;12.20;;;;;3.70;64.29;100172.31;5064267;28;45553;-50
2022/04/01 11:50:52;;;;;;;;;12.00;12.00;;;;;3.68;64.06;100182.47;5048303;28;45497;-51
2022/04/01 11:53:21;;;;;;;;;12.80;12.80;;;;;3.69;64.26;100184.19;5048786;28;48220;-54